sensor_id;sensor_type;location;lat;lon;timestamp;pressure;altitude;pressure_sealevel;temperature;humidity
5703;BME280;2876;51.738;10.050;2023-09-07T00:01:07;99891.50;;;17.35;93.33
5703;BME280;2876;51.738;10.050;2023-09-07T00:07:09;99891.56;;;17.46;93.13
5703;BME280;2876;51.738;10.050;2023-09-07T00:13:11;99877.31;;;17.51;92.37
5703;BME280;2876;51.738;10.050;2023-09-07T00:19:13;99883.00;;;17.61;91.53
5703;BME280;2876;51.738;10.050;2023-09-07T00:25:16;99878.59;;;17.48;91.93
5703;BME280;2876;51.738;10.050;2023-09-07T00:31:18;99886.38;;;17.45;92.41
5703;BME280;2876;51.738;10.050;2023-09-07T00:37:20;99884.38;;;17.40;92.18
5703;BME280;2876;51.738;10.050;2023-09-07T00:43:22;99894.84;;;17.48;92.54
5703;BME280;2876;51.738;10.050;2023-09-07T00:49:24;99890.59;;;17.41;91.44
5703;BME280;2876;51.738;10.050;2023-09-07T00:55:28;99889.41;;;17.37;92.00
5703;BME280;2876;51.738;10.050;2023-09-07T01:01:35;99893.28;;;17.11;92.23
5703;BME280;2876;51.738;10.050;2023-09-07T01:07:47;99883.53;;;16.91;93.28
5703;BME280;2876;51.738;10.050;2023-09-07T01:13:50;99878.34;;;16.90;94.01
5703;BME280;2876;51.738;10.050;2023-09-07T01:19:57;99879.34;;;16.77;93.86
5703;BME280;2876;51.738;10.050;2023-09-07T01:26:02;99882.50;;;16.74;93.87
5703;BME280;2876;51.738;10.050;2023-09-07T01:32:05;99878.00;;;16.61;95.07
5703;BME280;2876;51.738;10.050;2023-09-07T01:38:08;99878.78;;;16.68;94.57
5703;BME280;2876;51.738;10.050;2023-09-07T01:44:10;99878.63;;;16.63;93.64
5703;BME280;2876;51.738;10.050;2023-09-07T01:50:12;99878.16;;;16.48;93.27
5703;BME280;2876;51.738;10.050;2023-09-07T01:56:17;99892.88;;;16.34;94.28
5703;BME280;2876;51.738;10.050;2023-09-07T02:02:19;99895.72;;;16.20;94.93
5703;BME280;2876;51.738;10.050;2023-09-07T02:08:21;99900.38;;;16.13;96.45
5703;BME280;2876;51.738;10.050;2023-09-07T02:14:23;99891.53;;;16.00;96.20
5703;BME280;2876;51.738;10.050;2023-09-07T02:20:25;99895.56;;;16.15;96.85
5703;BME280;2876;51.738;10.050;2023-09-07T02:26:27;99898.34;;;16.09;96.11
5703;BME280;2876;51.738;10.050;2023-09-07T02:32:29;99889.50;;;15.95;97.81
5703;BME280;2876;51.738;10.050;2023-09-07T02:38:31;99893.88;;;15.89;98.62
5703;BME280;2876;51.738;10.050;2023-09-07T02:44:33;99890.00;;;15.85;98.02
5703;BME280;2876;51.738;10.050;2023-09-07T02:50:36;99889.78;;;15.80;98.46
5703;BME280;2876;51.738;10.050;2023-09-07T02:56:38;99893.38;;;15.74;99.12
5703;BME280;2876;51.738;10.050;2023-09-07T03:02:40;99895.41;;;15.85;98.31
5703;BME280;2876;51.738;10.050;2023-09-07T03:08:43;99886.22;;;15.86;98.30
5703;BME280;2876;51.738;10.050;2023-09-07T03:14:45;99893.72;;;15.84;97.52
5703;BME280;2876;51.738;10.050;2023-09-07T03:20:47;99891.25;;;15.83;95.39
5703;BME280;2876;51.738;10.050;2023-09-07T03:26:49;99888.69;;;15.56;95.16
5703;BME280;2876;51.738;10.050;2023-09-07T03:32:51;99891.03;;;15.14;97.37
5703;BME280;2876;51.738;10.050;2023-09-07T03:38:53;99894.84;;;14.93;100.00
5703;BME280;2876;51.738;10.050;2023-09-07T03:44:55;99891.13;;;14.94;100.00
5703;BME280;2876;51.738;10.050;2023-09-07T03:50:57;99890.66;;;14.97;100.00
5703;BME280;2876;51.738;10.050;2023-09-07T03:56:59;99888.59;;;15.00;99.25
5703;BME280;2876;51.738;10.050;2023-09-07T04:03:01;99887.38;;;14.89;99.48
5703;BME280;2876;51.738;10.050;2023-09-07T04:09:04;99890.75;;;14.78;99.58
5703;BME280;2876;51.738;10.050;2023-09-07T04:15:07;99882.28;;;14.67;100.00
5703;BME280;2876;51.738;10.050;2023-09-07T04:21:09;99886.44;;;14.57;100.00
5703;BME280;2876;51.738;10.050;2023-09-07T04:27:11;99884.38;;;14.59;100.00
5703;BME280;2876;51.738;10.050;2023-09-07T04:33:13;99885.41;;;14.38;100.00
5703;BME280;2876;51.738;10.050;2023-09-07T04:39:15;99883.97;;;14.49;100.00
5703;BME280;2876;51.738;10.050;2023-09-07T04:45:18;99885.03;;;14.54;100.00
5703;BME280;2876;51.738;10.050;2023-09-07T04:51:19;99888.09;;;14.58;100.00
5703;BME280;2876;51.738;10.050;2023-09-07T04:57:23;99901.22;;;14.54;100.00
5703;BME280;2876;51.738;10.050;2023-09-07T05:03:25;99893.09;;;14.61;100.00
5703;BME280;2876;51.738;10.050;2023-09-07T05:09:27;99909.03;;;14.76;100.00
5703;BME280;2876;51.738;10.050;2023-09-07T05:15:31;99911.31;;;14.79;100.00
5703;BME280;2876;51.738;10.050;2023-09-07T05:21:33;99908.34;;;14.93;100.00
5703;BME280;2876;51.738;10.050;2023-09-07T05:27:35;99914.34;;;15.02;100.00
5703;BME280;2876;51.738;10.050;2023-09-07T05:33:37;99909.72;;;15.16;100.00
5703;BME280;2876;51.738;10.050;2023-09-07T05:39:40;99910.66;;;15.35;100.00
5703;BME280;2876;51.738;10.050;2023-09-07T05:45:42;99912.94;;;15.38;100.00
5703;BME280;2876;51.738;10.050;2023-09-07T05:51:44;99917.66;;;15.49;100.00
5703;BME280;2876;51.738;10.050;2023-09-07T05:57:46;99924.78;;;15.75;100.00
5703;BME280;2876;51.738;10.050;2023-09-07T06:03:48;99926.09;;;15.97;100.00
5703;BME280;2876;51.738;10.050;2023-09-07T06:09:50;99923.28;;;16.36;100.00
5703;BME280;2876;51.738;10.050;2023-09-07T06:15:52;99926.72;;;16.68;99.50
5703;BME280;2876;51.738;10.050;2023-09-07T06:21:54;99931.88;;;16.94;97.94
5703;BME280;2876;51.738;10.050;2023-09-07T06:27:56;99932.44;;;17.15;96.18
5703;BME280;2876;51.738;10.050;2023-09-07T06:33:58;99937.41;;;17.36;94.96
5703;BME280;2876;51.738;10.050;2023-09-07T06:40:00;99931.34;;;17.83;93.93
5703;BME280;2876;51.738;10.050;2023-09-07T06:46:07;99935.34;;;21.18;85.84
5703;BME280;2876;51.738;10.050;2023-09-07T06:52:12;99976.13;;;27.57;58.39
5703;BME280;2876;51.738;10.050;2023-09-07T06:58:14;99991.34;;;30.90;47.10
5703;BME280;2876;51.738;10.050;2023-09-07T07:04:16;99992.03;;;32.83;40.97
5703;BME280;2876;51.738;10.050;2023-09-07T07:10:18;100004.88;;;34.02;36.71
5703;BME280;2876;51.738;10.050;2023-09-07T07:16:20;99996.69;;;31.26;39.78
5703;BME280;2876;51.738;10.050;2023-09-07T07:22:23;99966.28;;;27.89;48.93
5703;BME280;2876;51.738;10.050;2023-09-07T07:28:25;99969.75;;;25.87;54.66
5703;BME280;2876;51.738;10.050;2023-09-07T07:34:27;99961.88;;;25.00;56.87
5703;BME280;2876;51.738;10.050;2023-09-07T07:40:29;99962.28;;;24.53;59.26
5703;BME280;2876;51.738;10.050;2023-09-07T07:46:31;99963.94;;;24.44;59.60
5703;BME280;2876;51.738;10.050;2023-09-07T07:52:33;99963.38;;;24.42;59.94
5703;BME280;2876;51.738;10.050;2023-09-07T07:58:36;99957.53;;;24.79;56.61
5703;BME280;2876;51.738;10.050;2023-09-07T08:04:38;99958.69;;;24.68;59.78
5703;BME280;2876;51.738;10.050;2023-09-07T08:10:40;99956.41;;;25.00;59.22
5703;BME280;2876;51.738;10.050;2023-09-07T08:16:43;99964.22;;;25.43;58.46
5703;BME280;2876;51.738;10.050;2023-09-07T08:22:45;99961.22;;;25.89;58.48
5703;BME280;2876;51.738;10.050;2023-09-07T08:28:47;99954.38;;;26.20;55.47
5703;BME280;2876;51.738;10.050;2023-09-07T08:34:50;99948.97;;;26.73;55.41
5703;BME280;2876;51.738;10.050;2023-09-07T08:41:02;99953.03;;;27.05;56.28
5703;BME280;2876;51.738;10.050;2023-09-07T08:47:07;99954.19;;;27.66;54.53
5703;BME280;2876;51.738;10.050;2023-09-07T08:53:10;99948.16;;;28.39;53.45
5703;BME280;2876;51.738;10.050;2023-09-07T08:59:12;99958.16;;;29.37;50.42
5703;BME280;2876;51.738;10.050;2023-09-07T09:05:15;99963.34;;;30.02;48.78
5703;BME280;2876;51.738;10.050;2023-09-07T09:11:21;99954.78;;;30.88;47.41
5703;BME280;2876;51.738;10.050;2023-09-07T09:17:24;99954.81;;;31.37;45.15
5703;BME280;2876;51.738;10.050;2023-09-07T09:23:34;99959.22;;;32.68;43.25
5703;BME280;2876;51.738;10.050;2023-09-07T09:29:37;99957.72;;;33.76;39.02
5703;BME280;2876;51.738;10.050;2023-09-07T09:35:39;99963.34;;;34.43;37.52
5703;BME280;2876;51.738;10.050;2023-09-07T09:41:41;99957.34;;;35.35;36.82
5703;BME280;2876;51.738;10.050;2023-09-07T09:47:43;99974.19;;;37.03;34.24
5703;BME280;2876;51.738;10.050;2023-09-07T09:53:46;99973.47;;;38.12;32.49
5703;BME280;2876;51.738;10.050;2023-09-07T09:59:49;99959.88;;;39.75;30.10
5703;BME280;2876;51.738;10.050;2023-09-07T10:05:53;99956.66;;;41.32;27.73
5703;BME280;2876;51.738;10.050;2023-09-07T10:11:58;99953.66;;;43.03;24.96
5703;BME280;2876;51.738;10.050;2023-09-07T10:18:13;99947.59;;;42.80;23.36
5703;BME280;2876;51.738;10.050;2023-09-07T10:24:34;99938.06;;;44.01;23.82
5703;BME280;2876;51.738;10.050;2023-09-07T10:30:41;99937.16;;;44.18;23.16
5703;BME280;2876;51.738;10.050;2023-09-07T10:36:44;99927.81;;;44.88;23.06
5703;BME280;2876;51.738;10.050;2023-09-07T10:42:47;99924.94;;;45.33;21.46
5703;BME280;2876;51.738;10.050;2023-09-07T10:48:54;99918.75;;;45.07;22.96
5703;BME280;2876;51.738;10.050;2023-09-07T10:54:58;99915.47;;;45.12;21.86
5703;BME280;2876;51.738;10.050;2023-09-07T11:01:01;99917.03;;;45.17;21.92
5703;BME280;2876;51.738;10.050;2023-09-07T11:07:05;99914.75;;;45.42;21.46
5703;BME280;2876;51.738;10.050;2023-09-07T11:13:07;99906.03;;;44.77;22.50
5703;BME280;2876;51.738;10.050;2023-09-07T11:19:09;99905.38;;;45.49;20.87
5703;BME280;2876;51.738;10.050;2023-09-07T11:25:11;99894.00;;;46.10;21.57
5703;BME280;2876;51.738;10.050;2023-09-07T11:31:13;99896.97;;;45.72;21.94
5703;BME280;2876;51.738;10.050;2023-09-07T11:37:24;99893.34;;;45.68;22.54
5703;BME280;2876;51.738;10.050;2023-09-07T11:43:26;99890.88;;;46.59;21.27
5703;BME280;2876;51.738;10.050;2023-09-07T11:49:28;99888.97;;;46.25;19.63
5703;BME280;2876;51.738;10.050;2023-09-07T11:55:32;99876.88;;;45.25;20.91
5703;BME280;2876;51.738;10.050;2023-09-07T12:01:34;99886.03;;;46.01;21.09
5703;BME280;2876;51.738;10.050;2023-09-07T12:07:37;99878.66;;;45.09;23.08
5703;BME280;2876;51.738;10.050;2023-09-07T12:13:39;99868.50;;;45.49;20.13
5703;BME280;2876;51.738;10.050;2023-09-07T12:19:41;99870.28;;;45.32;20.83
5703;BME280;2876;51.738;10.050;2023-09-07T12:25:44;99872.47;;;46.16;22.17
5703;BME280;2876;51.738;10.050;2023-09-07T12:31:46;99867.50;;;45.63;22.13
5703;BME280;2876;51.738;10.050;2023-09-07T12:37:48;99865.72;;;46.07;23.12
5703;BME280;2876;51.738;10.050;2023-09-07T12:43:50;99857.81;;;46.21;20.90
5703;BME280;2876;51.738;10.050;2023-09-07T12:49:54;99854.38;;;46.34;21.04
5703;BME280;2876;51.738;10.050;2023-09-07T12:55:56;99851.09;;;46.82;21.50
5703;BME280;2876;51.738;10.050;2023-09-07T13:01:58;99846.00;;;46.23;20.08
5703;BME280;2876;51.738;10.050;2023-09-07T13:08:00;99837.19;;;45.56;20.12
5703;BME280;2876;51.738;10.050;2023-09-07T13:14:04;99838.28;;;46.23;20.25
5703;BME280;2876;51.738;10.050;2023-09-07T13:20:13;99829.78;;;47.73;20.09
5703;BME280;2876;51.738;10.050;2023-09-07T13:26:15;99825.50;;;47.45;20.47
5703;BME280;2876;51.738;10.050;2023-09-07T13:32:17;99828.56;;;47.91;19.47
5703;BME280;2876;51.738;10.050;2023-09-07T13:38:20;99819.53;;;48.61;19.69
5703;BME280;2876;51.738;10.050;2023-09-07T13:44:22;99814.41;;;48.40;17.65
5703;BME280;2876;51.738;10.050;2023-09-07T13:50:24;99815.31;;;48.82;17.75
5703;BME280;2876;51.738;10.050;2023-09-07T13:56:27;99803.47;;;47.86;18.75
5703;BME280;2876;51.738;10.050;2023-09-07T14:02:29;99797.44;;;48.00;19.81
5703;BME280;2876;51.738;10.050;2023-09-07T14:08:31;99794.28;;;47.62;19.39
5703;BME280;2876;51.738;10.050;2023-09-07T14:14:34;99788.44;;;47.69;18.50
5703;BME280;2876;51.738;10.050;2023-09-07T14:20:36;99784.09;;;47.44;19.57
5703;BME280;2876;51.738;10.050;2023-09-07T14:26:38;99792.56;;;47.64;19.43
5703;BME280;2876;51.738;10.050;2023-09-07T14:32:40;99791.22;;;47.89;19.06
5703;BME280;2876;51.738;10.050;2023-09-07T14:38:43;99789.31;;;47.30;16.94
5703;BME280;2876;51.738;10.050;2023-09-07T14:44:47;99793.00;;;47.99;17.00
5703;BME280;2876;51.738;10.050;2023-09-07T14:50:49;99782.00;;;47.65;17.94
5703;BME280;2876;51.738;10.050;2023-09-07T14:56:51;99781.66;;;46.40;18.68
5703;BME280;2876;51.738;10.050;2023-09-07T15:02:53;99780.72;;;46.90;19.84
5703;BME280;2876;51.738;10.050;2023-09-07T15:08:56;99781.63;;;47.07;19.17
5703;BME280;2876;51.738;10.050;2023-09-07T15:14:58;99789.59;;;47.35;19.45
5703;BME280;2876;51.738;10.050;2023-09-07T15:21:00;99785.16;;;47.70;19.83
5703;BME280;2876;51.738;10.050;2023-09-07T15:27:10;99792.06;;;47.69;19.66
5703;BME280;2876;51.738;10.050;2023-09-07T15:33:12;99787.69;;;47.28;20.02
5703;BME280;2876;51.738;10.050;2023-09-07T15:39:15;99785.56;;;46.69;19.24
5703;BME280;2876;51.738;10.050;2023-09-07T15:45:17;99773.06;;;45.35;21.79
5703;BME280;2876;51.738;10.050;2023-09-07T15:51:19;99760.56;;;45.90;21.45
5703;BME280;2876;51.738;10.050;2023-09-07T15:57:21;99770.25;;;45.93;22.09
5703;BME280;2876;51.738;10.050;2023-09-07T16:03:23;99778.38;;;46.18;21.32
5703;BME280;2876;51.738;10.050;2023-09-07T16:09:25;99771.72;;;45.74;22.45
5703;BME280;2876;51.738;10.050;2023-09-07T16:15:29;99764.47;;;45.42;20.80
5703;BME280;2876;51.738;10.050;2023-09-07T16:21:32;99756.25;;;45.51;23.30
5703;BME280;2876;51.738;10.050;2023-09-07T16:27:34;99762.28;;;45.23;22.22
5703;BME280;2876;51.738;10.050;2023-09-07T16:33:40;99760.44;;;44.75;23.13
5703;BME280;2876;51.738;10.050;2023-09-07T16:39:42;99753.13;;;44.36;23.84
5703;BME280;2876;51.738;10.050;2023-09-07T16:45:45;99747.91;;;43.75;24.22
5703;BME280;2876;51.738;10.050;2023-09-07T16:51:47;99747.63;;;43.59;24.82
5703;BME280;2876;51.738;10.050;2023-09-07T16:57:50;99754.00;;;42.79;25.51
5703;BME280;2876;51.738;10.050;2023-09-07T17:03:52;99749.09;;;41.54;26.27
5703;BME280;2876;51.738;10.050;2023-09-07T17:09:54;99750.31;;;40.66;27.43
5703;BME280;2876;51.738;10.050;2023-09-07T17:15:56;99735.53;;;39.13;29.15
5703;BME280;2876;51.738;10.050;2023-09-07T17:22:00;99727.34;;;37.52;31.43
5703;BME280;2876;51.738;10.050;2023-09-07T17:28:03;99729.25;;;35.20;34.63
5703;BME280;2876;51.738;10.050;2023-09-07T17:34:05;99732.38;;;33.47;38.86
5703;BME280;2876;51.738;10.050;2023-09-07T17:40:08;99734.25;;;30.96;43.89
5703;BME280;2876;51.738;10.050;2023-09-07T17:46:11;99739.91;;;29.31;47.95
5703;BME280;2876;51.738;10.050;2023-09-07T17:52:13;99733.19;;;27.45;53.27
5703;BME280;2876;51.738;10.050;2023-09-07T17:58:15;99737.56;;;26.27;57.11
5703;BME280;2876;51.738;10.050;2023-09-07T18:04:17;99735.97;;;25.39;59.90
5703;BME280;2876;51.738;10.050;2023-09-07T18:10:20;99742.13;;;24.82;62.16
5703;BME280;2876;51.738;10.050;2023-09-07T18:16:22;99741.78;;;24.28;63.86
5703;BME280;2876;51.738;10.050;2023-09-07T18:22:25;99742.09;;;24.12;64.93
5703;BME280;2876;51.738;10.050;2023-09-07T18:28:27;99736.97;;;23.85;65.83
5703;BME280;2876;51.738;10.050;2023-09-07T18:34:29;99737.25;;;23.58;67.13
5703;BME280;2876;51.738;10.050;2023-09-07T18:40:32;99727.66;;;23.29;67.73
5703;BME280;2876;51.738;10.050;2023-09-07T18:46:34;99733.13;;;23.14;67.27
5703;BME280;2876;51.738;10.050;2023-09-07T18:52:37;99729.31;;;23.25;66.73
5703;BME280;2876;51.738;10.050;2023-09-07T18:58:39;99736.97;;;23.34;64.40
5703;BME280;2876;51.738;10.050;2023-09-07T19:04:41;99735.88;;;23.29;65.25
5703;BME280;2876;51.738;10.050;2023-09-07T19:10:44;99730.16;;;23.26;65.13
5703;BME280;2876;51.738;10.050;2023-09-07T19:16:46;99730.16;;;23.31;64.20
5703;BME280;2876;51.738;10.050;2023-09-07T19:22:48;99733.72;;;23.21;64.63
5703;BME280;2876;51.738;10.050;2023-09-07T19:28:50;99740.25;;;23.15;65.49
5703;BME280;2876;51.738;10.050;2023-09-07T19:34:52;99731.75;;;23.12;65.82
5703;BME280;2876;51.738;10.050;2023-09-07T19:40:54;99731.13;;;22.79;66.40
5703;BME280;2876;51.738;10.050;2023-09-07T19:46:58;99725.59;;;22.53;67.44
5703;BME280;2876;51.738;10.050;2023-09-07T19:53:00;99719.00;;;22.39;68.51
5703;BME280;2876;51.738;10.050;2023-09-07T19:59:02;99721.09;;;22.22;68.84
5703;BME280;2876;51.738;10.050;2023-09-07T20:05:04;99720.41;;;22.57;67.14
5703;BME280;2876;51.738;10.050;2023-09-07T20:11:12;99716.84;;;22.57;65.91
5703;BME280;2876;51.738;10.050;2023-09-07T20:17:16;99715.22;;;22.66;66.33
5703;BME280;2876;51.738;10.050;2023-09-07T20:23:18;99714.09;;;22.46;66.44
5703;BME280;2876;51.738;10.050;2023-09-07T20:29:20;99715.69;;;22.32;67.65
5703;BME280;2876;51.738;10.050;2023-09-07T20:35:22;99714.50;;;22.13;68.49
5703;BME280;2876;51.738;10.050;2023-09-07T20:41:24;99720.16;;;22.06;69.00
5703;BME280;2876;51.738;10.050;2023-09-07T20:47:27;99719.16;;;22.12;67.99
5703;BME280;2876;51.738;10.050;2023-09-07T20:53:29;99714.09;;;22.46;66.33
5703;BME280;2876;51.738;10.050;2023-09-07T20:59:31;99704.16;;;22.25;68.13
5703;BME280;2876;51.738;10.050;2023-09-07T21:05:33;99702.44;;;22.09;69.05
5703;BME280;2876;51.738;10.050;2023-09-07T21:11:35;99706.66;;;21.84;69.99
5703;BME280;2876;51.738;10.050;2023-09-07T21:17:39;99704.91;;;21.63;70.78
5703;BME280;2876;51.738;10.050;2023-09-07T21:23:41;99714.88;;;21.47;71.99
5703;BME280;2876;51.738;10.050;2023-09-07T21:29:43;99704.75;;;21.15;73.28
5703;BME280;2876;51.738;10.050;2023-09-07T21:35:45;99701.81;;;20.90;74.50
5703;BME280;2876;51.738;10.050;2023-09-07T21:41:49;99703.78;;;20.94;74.92
5703;BME280;2876;51.738;10.050;2023-09-07T21:47:52;99704.31;;;20.96;74.08
5703;BME280;2876;51.738;10.050;2023-09-07T21:53:54;99711.91;;;20.89;73.85
5703;BME280;2876;51.738;10.050;2023-09-07T21:59:56;99704.00;;;20.93;73.64
5703;BME280;2876;51.738;10.050;2023-09-07T22:05:58;99703.38;;;20.81;74.37
5703;BME280;2876;51.738;10.050;2023-09-07T22:12:00;99707.41;;;20.78;74.54
5703;BME280;2876;51.738;10.050;2023-09-07T22:18:02;99704.28;;;20.64;75.22
5703;BME280;2876;51.738;10.050;2023-09-07T22:24:05;99703.34;;;20.54;75.65
5703;BME280;2876;51.738;10.050;2023-09-07T22:30:08;99703.41;;;20.59;75.82
5703;BME280;2876;51.738;10.050;2023-09-07T22:36:10;99705.41;;;20.46;76.29
5703;BME280;2876;51.738;10.050;2023-09-07T22:42:12;99713.28;;;20.43;76.53
5703;BME280;2876;51.738;10.050;2023-09-07T22:48:14;99721.28;;;20.27;77.32
5703;BME280;2876;51.738;10.050;2023-09-07T22:54:16;99722.59;;;20.03;77.80
5703;BME280;2876;51.738;10.050;2023-09-07T23:00:18;99717.88;;;19.76;79.20
5703;BME280;2876;51.738;10.050;2023-09-07T23:06:20;99724.16;;;19.60;79.62
5703;BME280;2876;51.738;10.050;2023-09-07T23:12:22;99716.88;;;19.49;81.22
5703;BME280;2876;51.738;10.050;2023-09-07T23:18:25;99703.41;;;19.59;80.74
5703;BME280;2876;51.738;10.050;2023-09-07T23:24:28;99709.19;;;19.46;81.21
5703;BME280;2876;51.738;10.050;2023-09-07T23:30:30;99710.53;;;19.60;80.83
5703;BME280;2876;51.738;10.050;2023-09-07T23:36:32;99697.09;;;19.54;81.18
5703;BME280;2876;51.738;10.050;2023-09-07T23:42:37;99702.75;;;19.52;80.93
5703;BME280;2876;51.738;10.050;2023-09-07T23:48:39;99710.91;;;19.52;80.72
5703;BME280;2876;51.738;10.050;2023-09-07T23:54:41;99711.59;;;19.42;80.99
